sensor_id;sensor_type;location;lat;lon;timestamp;temperature;humidity
4461;DHT22;2243;48.812;9.232;2022-09-19T00:01:13;9.70;99.90
4461;DHT22;2243;48.812;9.232;2022-09-19T00:03:51;9.60;99.90
4461;DHT22;2243;48.812;9.232;2022-09-19T00:06:30;9.60;99.90
4461;DHT22;2243;48.812;9.232;2022-09-19T00:09:04;9.60;99.90
4461;DHT22;2243;48.812;9.232;2022-09-19T00:11:38;9.50;99.90
4461;DHT22;2243;48.812;9.232;2022-09-19T00:14:11;9.50;99.90
4461;DHT22;2243;48.812;9.232;2022-09-19T00:16:45;9.60;99.90
4461;DHT22;2243;48.812;9.232;2022-09-19T00:19:19;9.60;99.90
4461;DHT22;2243;48.812;9.232;2022-09-19T00:21:54;9.50;99.90
4461;DHT22;2243;48.812;9.232;2022-09-19T00:24:27;9.50;99.90
4461;DHT22;2243;48.812;9.232;2022-09-19T00:27:21;9.40;99.90
4461;DHT22;2243;48.812;9.232;2022-09-19T00:29:54;9.50;99.90
4461;DHT22;2243;48.812;9.232;2022-09-19T00:32:25;9.50;99.90
4461;DHT22;2243;48.812;9.232;2022-09-19T00:34:56;9.40;99.90
4461;DHT22;2243;48.812;9.232;2022-09-19T00:37:29;9.40;99.90
4461;DHT22;2243;48.812;9.232;2022-09-19T00:40:00;9.40;99.90
4461;DHT22;2243;48.812;9.232;2022-09-19T00:42:31;9.40;99.90
4461;DHT22;2243;48.812;9.232;2022-09-19T00:45:13;9.40;99.90
4461;DHT22;2243;48.812;9.232;2022-09-19T00:47:47;9.30;99.90
4461;DHT22;2243;48.812;9.232;2022-09-19T00:50:25;9.40;99.90
4461;DHT22;2243;48.812;9.232;2022-09-19T00:53:01;9.40;99.90
4461;DHT22;2243;48.812;9.232;2022-09-19T00:55:34;9.30;99.90
4461;DHT22;2243;48.812;9.232;2022-09-19T00:58:16;9.30;99.90
4461;DHT22;2243;48.812;9.232;2022-09-19T01:00:51;9.20;99.90
4461;DHT22;2243;48.812;9.232;2022-09-19T01:03:24;9.30;99.90
4461;DHT22;2243;48.812;9.232;2022-09-19T01:18:41;9.30;99.90
4461;DHT22;2243;48.812;9.232;2022-09-19T01:21:20;9.20;99.90
4461;DHT22;2243;48.812;9.232;2022-09-19T01:29:44;9.30;99.90
4461;DHT22;2243;48.812;9.232;2022-09-19T01:32:22;9.20;99.90
4461;DHT22;2243;48.812;9.232;2022-09-19T01:35:00;9.20;99.90
4461;DHT22;2243;48.812;9.232;2022-09-19T01:37:42;9.20;99.90
4461;DHT22;2243;48.812;9.232;2022-09-19T01:40:16;9.20;99.90
4461;DHT22;2243;48.812;9.232;2022-09-19T01:42:50;9.10;99.90
4461;DHT22;2243;48.812;9.232;2022-09-19T01:45:34;9.00;99.90
4461;DHT22;2243;48.812;9.232;2022-09-19T01:56:38;8.90;99.90
4461;DHT22;2243;48.812;9.232;2022-09-19T01:59:40;9.10;99.90
4461;DHT22;2243;48.812;9.232;2022-09-19T02:02:38;9.20;99.90
4461;DHT22;2243;48.812;9.232;2022-09-19T02:06:00;9.20;99.90
4461;DHT22;2243;48.812;9.232;2022-09-19T02:08:51;9.10;99.90
4461;DHT22;2243;48.812;9.232;2022-09-19T02:11:30;9.10;99.90
4461;DHT22;2243;48.812;9.232;2022-09-19T02:14:08;9.10;99.90
4461;DHT22;2243;48.812;9.232;2022-09-19T02:16:53;9.00;99.90
4461;DHT22;2243;48.812;9.232;2022-09-19T02:19:50;9.10;99.90
4461;DHT22;2243;48.812;9.232;2022-09-19T02:22:29;9.10;99.90
4461;DHT22;2243;48.812;9.232;2022-09-19T02:25:04;9.10;99.90
4461;DHT22;2243;48.812;9.232;2022-09-19T02:27:44;9.10;99.90
4461;DHT22;2243;48.812;9.232;2022-09-19T02:30:20;9.10;99.90
4461;DHT22;2243;48.812;9.232;2022-09-19T02:32:52;9.10;99.90
4461;DHT22;2243;48.812;9.232;2022-09-19T02:35:32;9.10;99.90
4461;DHT22;2243;48.812;9.232;2022-09-19T02:38:31;9.10;99.90
4461;DHT22;2243;48.812;9.232;2022-09-19T02:41:16;9.20;99.90
4461;DHT22;2243;48.812;9.232;2022-09-19T02:43:59;9.20;99.90
4461;DHT22;2243;48.812;9.232;2022-09-19T02:46:43;9.20;99.90
4461;DHT22;2243;48.812;9.232;2022-09-19T02:52:27;9.20;99.90
4461;DHT22;2243;48.812;9.232;2022-09-19T02:55:25;9.20;99.90
4461;DHT22;2243;48.812;9.232;2022-09-19T02:58:02;9.20;99.90
4461;DHT22;2243;48.812;9.232;2022-09-19T03:00:35;9.20;99.90
4461;DHT22;2243;48.812;9.232;2022-09-19T03:03:18;9.20;99.90
4461;DHT22;2243;48.812;9.232;2022-09-19T03:06:19;9.20;99.90
4461;DHT22;2243;48.812;9.232;2022-09-19T03:08:54;9.20;99.90
4461;DHT22;2243;48.812;9.232;2022-09-19T03:11:27;9.20;99.90
4461;DHT22;2243;48.812;9.232;2022-09-19T03:13:59;9.20;99.90
4461;DHT22;2243;48.812;9.232;2022-09-19T03:16:38;9.20;99.90
4461;DHT22;2243;48.812;9.232;2022-09-19T03:19:12;9.20;99.90
4461;DHT22;2243;48.812;9.232;2022-09-19T03:21:43;9.30;99.90
4461;DHT22;2243;48.812;9.232;2022-09-19T03:24:14;9.30;99.90
4461;DHT22;2243;48.812;9.232;2022-09-19T03:26:45;9.40;99.90
4461;DHT22;2243;48.812;9.232;2022-09-19T03:29:17;9.30;99.90
4461;DHT22;2243;48.812;9.232;2022-09-19T03:31:48;9.30;99.90
4461;DHT22;2243;48.812;9.232;2022-09-19T03:34:23;9.40;99.90
4461;DHT22;2243;48.812;9.232;2022-09-19T03:36:54;9.40;99.90
4461;DHT22;2243;48.812;9.232;2022-09-19T03:39:25;9.40;99.90
4461;DHT22;2243;48.812;9.232;2022-09-19T03:41:56;9.50;99.90
4461;DHT22;2243;48.812;9.232;2022-09-19T03:44:27;9.50;99.90
4461;DHT22;2243;48.812;9.232;2022-09-19T03:46:58;9.50;99.90
4461;DHT22;2243;48.812;9.232;2022-09-19T03:49:29;9.50;99.90
4461;DHT22;2243;48.812;9.232;2022-09-19T03:52:01;9.50;99.90
4461;DHT22;2243;48.812;9.232;2022-09-19T03:54:32;9.60;99.90
4461;DHT22;2243;48.812;9.232;2022-09-19T03:57:03;9.60;99.90
4461;DHT22;2243;48.812;9.232;2022-09-19T03:59:34;9.60;99.90
4461;DHT22;2243;48.812;9.232;2022-09-19T04:02:10;9.70;99.90
4461;DHT22;2243;48.812;9.232;2022-09-19T04:04:41;9.70;99.90
4461;DHT22;2243;48.812;9.232;2022-09-19T04:07:12;9.70;99.90
4461;DHT22;2243;48.812;9.232;2022-09-19T04:09:43;9.70;99.90
4461;DHT22;2243;48.812;9.232;2022-09-19T04:12:15;9.70;99.90
4461;DHT22;2243;48.812;9.232;2022-09-19T04:14:46;9.80;99.90
4461;DHT22;2243;48.812;9.232;2022-09-19T04:17:17;9.80;99.90
4461;DHT22;2243;48.812;9.232;2022-09-19T04:19:53;9.80;99.90
4461;DHT22;2243;48.812;9.232;2022-09-19T04:22:24;9.80;99.90
4461;DHT22;2243;48.812;9.232;2022-09-19T04:24:56;9.80;99.90
4461;DHT22;2243;48.812;9.232;2022-09-19T04:27:27;9.80;99.90
4461;DHT22;2243;48.812;9.232;2022-09-19T04:29:58;9.80;99.90
4461;DHT22;2243;48.812;9.232;2022-09-19T04:32:31;9.80;99.90
4461;DHT22;2243;48.812;9.232;2022-09-19T04:35:02;9.80;99.90
4461;DHT22;2243;48.812;9.232;2022-09-19T04:37:33;9.80;99.90
4461;DHT22;2243;48.812;9.232;2022-09-19T04:40:04;9.80;99.90
4461;DHT22;2243;48.812;9.232;2022-09-19T04:42:37;9.80;99.90
4461;DHT22;2243;48.812;9.232;2022-09-19T04:45:08;9.90;99.90
4461;DHT22;2243;48.812;9.232;2022-09-19T04:47:40;9.90;99.90
4461;DHT22;2243;48.812;9.232;2022-09-19T04:50:11;9.90;99.90
4461;DHT22;2243;48.812;9.232;2022-09-19T04:52:42;9.90;99.90
4461;DHT22;2243;48.812;9.232;2022-09-19T04:55:14;9.90;99.90
4461;DHT22;2243;48.812;9.232;2022-09-19T04:57:45;10.00;99.90
4461;DHT22;2243;48.812;9.232;2022-09-19T05:00:16;10.00;99.90
4461;DHT22;2243;48.812;9.232;2022-09-19T05:03:11;10.00;99.90
4461;DHT22;2243;48.812;9.232;2022-09-19T05:05:46;10.00;99.90
4461;DHT22;2243;48.812;9.232;2022-09-19T05:08:26;10.00;99.90
4461;DHT22;2243;48.812;9.232;2022-09-19T05:11:01;10.00;99.90
4461;DHT22;2243;48.812;9.232;2022-09-19T05:13:35;10.00;99.90
4461;DHT22;2243;48.812;9.232;2022-09-19T05:16:09;10.00;99.90
4461;DHT22;2243;48.812;9.232;2022-09-19T05:18:44;10.10;99.90
4461;DHT22;2243;48.812;9.232;2022-09-19T05:21:16;10.10;99.90
4461;DHT22;2243;48.812;9.232;2022-09-19T05:23:47;10.10;99.90
4461;DHT22;2243;48.812;9.232;2022-09-19T05:26:18;10.20;99.90
4461;DHT22;2243;48.812;9.232;2022-09-19T05:28:49;10.20;99.90
4461;DHT22;2243;48.812;9.232;2022-09-19T05:31:20;10.30;99.90
4461;DHT22;2243;48.812;9.232;2022-09-19T05:33:51;10.20;99.90
4461;DHT22;2243;48.812;9.232;2022-09-19T05:36:22;10.20;99.90
4461;DHT22;2243;48.812;9.232;2022-09-19T05:38:53;10.20;99.90
4461;DHT22;2243;48.812;9.232;2022-09-19T05:41:24;10.20;99.90
4461;DHT22;2243;48.812;9.232;2022-09-19T05:43:55;10.20;99.90
4461;DHT22;2243;48.812;9.232;2022-09-19T05:46:26;10.20;99.90
4461;DHT22;2243;48.812;9.232;2022-09-19T05:49:00;10.20;99.90
4461;DHT22;2243;48.812;9.232;2022-09-19T05:51:31;10.20;99.90
4461;DHT22;2243;48.812;9.232;2022-09-19T05:54:02;10.30;99.90
4461;DHT22;2243;48.812;9.232;2022-09-19T05:56:33;10.30;99.90
4461;DHT22;2243;48.812;9.232;2022-09-19T05:59:04;10.20;99.90
4461;DHT22;2243;48.812;9.232;2022-09-19T06:01:35;10.30;99.90
4461;DHT22;2243;48.812;9.232;2022-09-19T06:04:08;10.30;99.90
4461;DHT22;2243;48.812;9.232;2022-09-19T06:06:39;10.30;99.90
4461;DHT22;2243;48.812;9.232;2022-09-19T06:09:10;10.40;99.90
4461;DHT22;2243;48.812;9.232;2022-09-19T06:11:41;10.30;99.90
4461;DHT22;2243;48.812;9.232;2022-09-19T06:14:12;10.40;99.90
4461;DHT22;2243;48.812;9.232;2022-09-19T06:16:45;10.40;99.90
4461;DHT22;2243;48.812;9.232;2022-09-19T06:19:16;10.50;99.90
4461;DHT22;2243;48.812;9.232;2022-09-19T06:21:47;10.50;99.90
4461;DHT22;2243;48.812;9.232;2022-09-19T06:24:18;10.60;99.90
4461;DHT22;2243;48.812;9.232;2022-09-19T06:26:52;10.60;99.90
4461;DHT22;2243;48.812;9.232;2022-09-19T06:29:24;10.60;99.90
4461;DHT22;2243;48.812;9.232;2022-09-19T06:31:55;10.60;99.90
4461;DHT22;2243;48.812;9.232;2022-09-19T06:34:26;10.60;99.90
4461;DHT22;2243;48.812;9.232;2022-09-19T06:37:17;10.70;99.90
4461;DHT22;2243;48.812;9.232;2022-09-19T06:39:48;10.70;99.90
4461;DHT22;2243;48.812;9.232;2022-09-19T06:42:19;10.70;99.90
4461;DHT22;2243;48.812;9.232;2022-09-19T06:44:50;10.70;99.90
4461;DHT22;2243;48.812;9.232;2022-09-19T06:47:21;10.70;99.90
4461;DHT22;2243;48.812;9.232;2022-09-19T06:49:52;10.70;99.90
4461;DHT22;2243;48.812;9.232;2022-09-19T06:52:23;10.70;99.90
4461;DHT22;2243;48.812;9.232;2022-09-19T06:54:54;10.70;99.90
4461;DHT22;2243;48.812;9.232;2022-09-19T06:57:25;10.80;99.90
4461;DHT22;2243;48.812;9.232;2022-09-19T06:59:56;10.80;99.90
4461;DHT22;2243;48.812;9.232;2022-09-19T07:02:27;10.80;99.90
4461;DHT22;2243;48.812;9.232;2022-09-19T07:04:59;10.80;99.90
4461;DHT22;2243;48.812;9.232;2022-09-19T07:07:29;10.80;99.90
4461;DHT22;2243;48.812;9.232;2022-09-19T07:10:01;10.80;99.90
4461;DHT22;2243;48.812;9.232;2022-09-19T07:12:32;10.80;99.90
4461;DHT22;2243;48.812;9.232;2022-09-19T07:15:03;10.80;99.90
4461;DHT22;2243;48.812;9.232;2022-09-19T07:17:34;10.70;99.90
4461;DHT22;2243;48.812;9.232;2022-09-19T07:20:05;10.80;99.90
4461;DHT22;2243;48.812;9.232;2022-09-19T07:22:37;10.90;99.90
4461;DHT22;2243;48.812;9.232;2022-09-19T07:25:08;10.90;99.90
4461;DHT22;2243;48.812;9.232;2022-09-19T07:27:39;10.90;99.90
4461;DHT22;2243;48.812;9.232;2022-09-19T07:30:12;11.00;99.90
4461;DHT22;2243;48.812;9.232;2022-09-19T07:32:43;11.00;99.90
4461;DHT22;2243;48.812;9.232;2022-09-19T07:35:14;11.10;99.90
4461;DHT22;2243;48.812;9.232;2022-09-19T07:37:49;11.10;99.90
4461;DHT22;2243;48.812;9.232;2022-09-19T07:40:22;11.10;99.90
4461;DHT22;2243;48.812;9.232;2022-09-19T07:43:01;11.10;99.90
4461;DHT22;2243;48.812;9.232;2022-09-19T07:45:35;11.10;99.90
4461;DHT22;2243;48.812;9.232;2022-09-19T07:48:07;11.20;99.90
4461;DHT22;2243;48.812;9.232;2022-09-19T07:50:38;11.20;99.90
4461;DHT22;2243;48.812;9.232;2022-09-19T07:53:17;11.20;99.90
4461;DHT22;2243;48.812;9.232;2022-09-19T07:55:51;11.20;99.90
4461;DHT22;2243;48.812;9.232;2022-09-19T07:58:26;11.20;99.90
4461;DHT22;2243;48.812;9.232;2022-09-19T08:00:58;11.20;99.90
4461;DHT22;2243;48.812;9.232;2022-09-19T08:03:33;11.20;99.90
4461;DHT22;2243;48.812;9.232;2022-09-19T08:06:04;11.30;99.90
4461;DHT22;2243;48.812;9.232;2022-09-19T08:08:35;11.30;99.90
4461;DHT22;2243;48.812;9.232;2022-09-19T08:11:06;11.40;99.90
4461;DHT22;2243;48.812;9.232;2022-09-19T08:13:38;11.40;99.90
4461;DHT22;2243;48.812;9.232;2022-09-19T08:16:08;11.40;99.90
4461;DHT22;2243;48.812;9.232;2022-09-19T08:18:39;11.40;99.90
4461;DHT22;2243;48.812;9.232;2022-09-19T08:21:11;11.40;99.90
4461;DHT22;2243;48.812;9.232;2022-09-19T08:23:42;11.50;99.90
4461;DHT22;2243;48.812;9.232;2022-09-19T08:26:13;11.50;99.90
4461;DHT22;2243;48.812;9.232;2022-09-19T08:28:44;11.50;99.90
4461;DHT22;2243;48.812;9.232;2022-09-19T08:31:15;11.50;99.90
4461;DHT22;2243;48.812;9.232;2022-09-19T08:33:47;11.50;99.90
4461;DHT22;2243;48.812;9.232;2022-09-19T08:36:18;11.60;99.90
4461;DHT22;2243;48.812;9.232;2022-09-19T08:38:49;11.60;99.90
4461;DHT22;2243;48.812;9.232;2022-09-19T08:47:32;11.90;99.90
4461;DHT22;2243;48.812;9.232;2022-09-19T08:50:14;11.80;99.90
4461;DHT22;2243;48.812;9.232;2022-09-19T08:52:50;11.90;99.90
4461;DHT22;2243;48.812;9.232;2022-09-19T08:55:26;11.90;99.90
4461;DHT22;2243;48.812;9.232;2022-09-19T08:58:14;12.00;99.90
4461;DHT22;2243;48.812;9.232;2022-09-19T09:00:48;12.00;99.90
4461;DHT22;2243;48.812;9.232;2022-09-19T09:03:29;12.10;99.90
4461;DHT22;2243;48.812;9.232;2022-09-19T09:06:24;12.10;99.90
4461;DHT22;2243;48.812;9.232;2022-09-19T09:12:06;12.00;99.90
4461;DHT22;2243;48.812;9.232;2022-09-19T09:24:22;12.00;99.90
4461;DHT22;2243;48.812;9.232;2022-09-19T09:27:30;12.10;99.90
4461;DHT22;2243;48.812;9.232;2022-09-19T09:30:13;12.10;99.90
4461;DHT22;2243;48.812;9.232;2022-09-19T09:32:57;12.10;99.90
4461;DHT22;2243;48.812;9.232;2022-09-19T09:36:12;12.10;99.90
4461;DHT22;2243;48.812;9.232;2022-09-19T09:38:58;12.10;99.90
4461;DHT22;2243;48.812;9.232;2022-09-19T09:41:49;12.10;99.90
4461;DHT22;2243;48.812;9.232;2022-09-19T09:44:30;12.20;99.90
4461;DHT22;2243;48.812;9.232;2022-09-19T09:47:20;12.10;99.90
4461;DHT22;2243;48.812;9.232;2022-09-19T09:50:20;12.20;99.90
4461;DHT22;2243;48.812;9.232;2022-09-19T09:53:07;12.10;99.90
4461;DHT22;2243;48.812;9.232;2022-09-19T09:56:07;12.20;99.90
4461;DHT22;2243;48.812;9.232;2022-09-19T10:01:49;12.30;99.90
4461;DHT22;2243;48.812;9.232;2022-09-19T10:04:53;12.40;99.90
4461;DHT22;2243;48.812;9.232;2022-09-19T10:07:41;12.60;99.90
4461;DHT22;2243;48.812;9.232;2022-09-19T10:10:27;12.60;99.90
4461;DHT22;2243;48.812;9.232;2022-09-19T10:13:07;12.80;99.90
4461;DHT22;2243;48.812;9.232;2022-09-19T10:15:51;13.10;99.90
4461;DHT22;2243;48.812;9.232;2022-09-19T10:18:42;13.20;99.90
4461;DHT22;2243;48.812;9.232;2022-09-19T10:21:16;13.20;99.90
4461;DHT22;2243;48.812;9.232;2022-09-19T10:23:47;13.20;99.90
4461;DHT22;2243;48.812;9.232;2022-09-19T10:26:26;13.10;99.90
4461;DHT22;2243;48.812;9.232;2022-09-19T10:28:58;13.00;99.90
4461;DHT22;2243;48.812;9.232;2022-09-19T10:31:34;13.00;99.90
4461;DHT22;2243;48.812;9.232;2022-09-19T10:34:27;13.00;99.90
4461;DHT22;2243;48.812;9.232;2022-09-19T10:37:12;13.10;99.90
4461;DHT22;2243;48.812;9.232;2022-09-19T10:39:46;13.10;99.90
4461;DHT22;2243;48.812;9.232;2022-09-19T10:45:04;13.40;99.90
4461;DHT22;2243;48.812;9.232;2022-09-19T10:47:45;13.50;99.90
4461;DHT22;2243;48.812;9.232;2022-09-19T10:50:18;13.70;99.90
4461;DHT22;2243;48.812;9.232;2022-09-19T10:52:51;13.80;99.90
4461;DHT22;2243;48.812;9.232;2022-09-19T10:55:33;13.80;99.90
4461;DHT22;2243;48.812;9.232;2022-09-19T10:58:20;14.00;99.90
4461;DHT22;2243;48.812;9.232;2022-09-19T11:01:00;14.20;99.90
4461;DHT22;2243;48.812;9.232;2022-09-19T11:03:34;14.20;99.90
4461;DHT22;2243;48.812;9.232;2022-09-19T11:06:14;14.40;99.90
4461;DHT22;2243;48.812;9.232;2022-09-19T11:08:49;14.50;99.90
4461;DHT22;2243;48.812;9.232;2022-09-19T11:11:42;14.40;99.90
4461;DHT22;2243;48.812;9.232;2022-09-19T11:20:29;13.90;99.90
4461;DHT22;2243;48.812;9.232;2022-09-19T11:23:32;13.80;99.90
4461;DHT22;2243;48.812;9.232;2022-09-19T11:48:09;14.10;99.90
4461;DHT22;2243;48.812;9.232;2022-09-19T12:11:32;14.00;99.90
4461;DHT22;2243;48.812;9.232;2022-09-19T12:14:15;14.20;99.90
4461;DHT22;2243;48.812;9.232;2022-09-19T12:17:04;14.30;99.90
4461;DHT22;2243;48.812;9.232;2022-09-19T12:19:55;14.40;99.90
4461;DHT22;2243;48.812;9.232;2022-09-19T12:22:31;14.30;99.90
4461;DHT22;2243;48.812;9.232;2022-09-19T12:27:56;14.60;99.90
4461;DHT22;2243;48.812;9.232;2022-09-19T12:30:34;14.70;99.90
4461;DHT22;2243;48.812;9.232;2022-09-19T12:33:38;14.70;99.90
4461;DHT22;2243;48.812;9.232;2022-09-19T12:36:23;14.90;99.90
4461;DHT22;2243;48.812;9.232;2022-09-19T12:42:32;15.30;99.90
4461;DHT22;2243;48.812;9.232;2022-09-19T12:45:22;15.60;99.90
4461;DHT22;2243;48.812;9.232;2022-09-19T12:48:21;16.00;99.90
4461;DHT22;2243;48.812;9.232;2022-09-19T12:51:01;16.20;99.90
4461;DHT22;2243;48.812;9.232;2022-09-19T12:53:39;16.10;99.90
4461;DHT22;2243;48.812;9.232;2022-09-19T12:56:23;16.00;99.90
4461;DHT22;2243;48.812;9.232;2022-09-19T12:59:21;16.20;99.90
4461;DHT22;2243;48.812;9.232;2022-09-19T13:02:00;16.30;99.90
4461;DHT22;2243;48.812;9.232;2022-09-19T13:07:37;16.10;99.90
4461;DHT22;2243;48.812;9.232;2022-09-19T13:10:30;16.00;99.90
4461;DHT22;2243;48.812;9.232;2022-09-19T13:13:26;16.10;99.90
4461;DHT22;2243;48.812;9.232;2022-09-19T13:16:10;16.30;99.90
4461;DHT22;2243;48.812;9.232;2022-09-19T13:18:48;16.40;99.90
4461;DHT22;2243;48.812;9.232;2022-09-19T13:21:44;16.60;99.90
4461;DHT22;2243;48.812;9.232;2022-09-19T13:27:11;16.40;99.90
4461;DHT22;2243;48.812;9.232;2022-09-19T13:29:46;16.30;99.90
4461;DHT22;2243;48.812;9.232;2022-09-19T13:32:30;16.30;99.90
4461;DHT22;2243;48.812;9.232;2022-09-19T13:35:23;16.50;99.90
4461;DHT22;2243;48.812;9.232;2022-09-19T13:37:57;16.60;99.90
4461;DHT22;2243;48.812;9.232;2022-09-19T13:40:36;16.50;99.90
4461;DHT22;2243;48.812;9.232;2022-09-19T13:48:53;16.80;99.90
4461;DHT22;2243;48.812;9.232;2022-09-19T13:54:36;16.80;99.90
4461;DHT22;2243;48.812;9.232;2022-09-19T13:57:23;16.50;99.90
4461;DHT22;2243;48.812;9.232;2022-09-19T14:00:00;16.30;99.90
4461;DHT22;2243;48.812;9.232;2022-09-19T14:02:39;16.40;99.90
4461;DHT22;2243;48.812;9.232;2022-09-19T14:05:18;16.20;99.90
4461;DHT22;2243;48.812;9.232;2022-09-19T14:10:49;16.00;99.90
4461;DHT22;2243;48.812;9.232;2022-09-19T14:13:33;15.70;99.90
4461;DHT22;2243;48.812;9.232;2022-09-19T14:16:27;15.50;99.90
4461;DHT22;2243;48.812;9.232;2022-09-19T14:19:01;15.50;99.90
4461;DHT22;2243;48.812;9.232;2022-09-19T14:24:20;15.30;99.90
4461;DHT22;2243;48.812;9.232;2022-09-19T14:27:08;15.20;99.90
4461;DHT22;2243;48.812;9.232;2022-09-19T14:30:03;14.80;99.90
4461;DHT22;2243;48.812;9.232;2022-09-19T14:32:41;14.60;99.90
4461;DHT22;2243;48.812;9.232;2022-09-19T14:35:42;14.30;99.90
4461;DHT22;2243;48.812;9.232;2022-09-19T14:38:29;14.10;99.90
4461;DHT22;2243;48.812;9.232;2022-09-19T14:47:46;13.90;99.90
4461;DHT22;2243;48.812;9.232;2022-09-19T14:50:39;13.80;99.90
4461;DHT22;2243;48.812;9.232;2022-09-19T14:53:31;13.60;99.90
4461;DHT22;2243;48.812;9.232;2022-09-19T14:56:15;13.40;99.90
4461;DHT22;2243;48.812;9.232;2022-09-19T14:58:51;13.30;99.90
4461;DHT22;2243;48.812;9.232;2022-09-19T15:01:32;13.20;99.90
4461;DHT22;2243;48.812;9.232;2022-09-19T15:04:11;13.30;99.90
4461;DHT22;2243;48.812;9.232;2022-09-19T15:06:49;13.30;99.90
4461;DHT22;2243;48.812;9.232;2022-09-19T15:09:33;13.20;99.90
4461;DHT22;2243;48.812;9.232;2022-09-19T15:12:19;13.30;99.90
4461;DHT22;2243;48.812;9.232;2022-09-19T15:14:55;13.40;99.90
4461;DHT22;2243;48.812;9.232;2022-09-19T15:17:33;13.60;99.90
4461;DHT22;2243;48.812;9.232;2022-09-19T15:22:44;13.70;99.90
4461;DHT22;2243;48.812;9.232;2022-09-19T15:25:30;13.70;99.90
4461;DHT22;2243;48.812;9.232;2022-09-19T15:28:25;13.80;99.90
4461;DHT22;2243;48.812;9.232;2022-09-19T15:31:01;13.80;99.90
4461;DHT22;2243;48.812;9.232;2022-09-19T15:33:32;13.80;99.90
4461;DHT22;2243;48.812;9.232;2022-09-19T15:36:04;13.90;99.90
4461;DHT22;2243;48.812;9.232;2022-09-19T15:38:37;14.00;99.90
4461;DHT22;2243;48.812;9.232;2022-09-19T15:41:08;14.10;99.90
4461;DHT22;2243;48.812;9.232;2022-09-19T15:43:46;14.40;99.90
4461;DHT22;2243;48.812;9.232;2022-09-19T15:49:00;15.50;99.90
4461;DHT22;2243;48.812;9.232;2022-09-19T15:51:38;16.10;99.90
4461;DHT22;2243;48.812;9.232;2022-09-19T15:54:16;16.60;99.90
4461;DHT22;2243;48.812;9.232;2022-09-19T15:56:49;16.50;99.90
4461;DHT22;2243;48.812;9.232;2022-09-19T16:00:07;16.60;99.90
4461;DHT22;2243;48.812;9.232;2022-09-19T16:02:20;16.70;99.90
4461;DHT22;2243;48.812;9.232;2022-09-19T16:05:38;16.40;99.90
4461;DHT22;2243;48.812;9.232;2022-09-19T16:08:21;16.00;99.90
4461;DHT22;2243;48.812;9.232;2022-09-19T16:11:50;15.70;99.90
4461;DHT22;2243;48.812;9.232;2022-09-19T16:14:33;15.50;99.90
4461;DHT22;2243;48.812;9.232;2022-09-19T16:17:12;15.10;99.90
4461;DHT22;2243;48.812;9.232;2022-09-19T16:19:53;15.00;99.90
4461;DHT22;2243;48.812;9.232;2022-09-19T16:22:28;14.90;99.90
4461;DHT22;2243;48.812;9.232;2022-09-19T16:25:02;14.80;99.90
4461;DHT22;2243;48.812;9.232;2022-09-19T16:27:36;14.70;99.90
4461;DHT22;2243;48.812;9.232;2022-09-19T16:30:09;14.60;99.90
4461;DHT22;2243;48.812;9.232;2022-09-19T16:32:44;14.50;99.90
4461;DHT22;2243;48.812;9.232;2022-09-19T16:35:19;14.40;99.90
4461;DHT22;2243;48.812;9.232;2022-09-19T16:37:50;14.30;99.90
4461;DHT22;2243;48.812;9.232;2022-09-19T16:40:25;14.10;99.90
4461;DHT22;2243;48.812;9.232;2022-09-19T16:42:57;14.10;99.90
4461;DHT22;2243;48.812;9.232;2022-09-19T16:45:37;14.30;99.90
4461;DHT22;2243;48.812;9.232;2022-09-19T16:48:11;14.50;99.90
4461;DHT22;2243;48.812;9.232;2022-09-19T16:50:42;14.50;99.90
4461;DHT22;2243;48.812;9.232;2022-09-19T16:53:13;14.50;99.90
4461;DHT22;2243;48.812;9.232;2022-09-19T16:55:44;14.50;99.90
4461;DHT22;2243;48.812;9.232;2022-09-19T16:58:22;14.40;99.90
4461;DHT22;2243;48.812;9.232;2022-09-19T17:00:53;14.30;99.90
4461;DHT22;2243;48.812;9.232;2022-09-19T17:03:24;14.20;99.90
4461;DHT22;2243;48.812;9.232;2022-09-19T17:05:55;14.00;99.90
4461;DHT22;2243;48.812;9.232;2022-09-19T17:08:27;13.90;99.90
4461;DHT22;2243;48.812;9.232;2022-09-19T17:10:58;13.90;99.90
4461;DHT22;2243;48.812;9.232;2022-09-19T17:13:29;13.70;99.90
4461;DHT22;2243;48.812;9.232;2022-09-19T17:16:04;13.70;99.90
4461;DHT22;2243;48.812;9.232;2022-09-19T17:18:35;13.60;99.90
4461;DHT22;2243;48.812;9.232;2022-09-19T17:21:11;13.60;99.90
4461;DHT22;2243;48.812;9.232;2022-09-19T17:23:43;13.60;99.90
4461;DHT22;2243;48.812;9.232;2022-09-19T17:26:15;13.60;99.90
4461;DHT22;2243;48.812;9.232;2022-09-19T17:28:46;13.50;99.90
4461;DHT22;2243;48.812;9.232;2022-09-19T17:31:23;13.40;99.90
4461;DHT22;2243;48.812;9.232;2022-09-19T17:33:54;13.40;99.90
4461;DHT22;2243;48.812;9.232;2022-09-19T17:36:25;13.40;99.90
4461;DHT22;2243;48.812;9.232;2022-09-19T17:38:56;13.30;99.90
4461;DHT22;2243;48.812;9.232;2022-09-19T17:41:27;13.30;99.90
4461;DHT22;2243;48.812;9.232;2022-09-19T17:43:58;13.40;99.90
4461;DHT22;2243;48.812;9.232;2022-09-19T17:46:29;13.50;99.90
4461;DHT22;2243;48.812;9.232;2022-09-19T17:49:01;13.50;99.90
4461;DHT22;2243;48.812;9.232;2022-09-19T17:51:32;13.50;99.90
4461;DHT22;2243;48.812;9.232;2022-09-19T17:54:03;13.50;99.90
4461;DHT22;2243;48.812;9.232;2022-09-19T17:56:34;13.50;99.90
4461;DHT22;2243;48.812;9.232;2022-09-19T17:59:07;13.40;99.90
4461;DHT22;2243;48.812;9.232;2022-09-19T18:01:38;13.20;99.90
4461;DHT22;2243;48.812;9.232;2022-09-19T18:04:28;13.10;99.90
4461;DHT22;2243;48.812;9.232;2022-09-19T18:06:59;13.00;99.90
4461;DHT22;2243;48.812;9.232;2022-09-19T18:09:30;13.10;99.90
4461;DHT22;2243;48.812;9.232;2022-09-19T18:12:01;13.00;99.90
4461;DHT22;2243;48.812;9.232;2022-09-19T18:14:33;13.10;99.90
4461;DHT22;2243;48.812;9.232;2022-09-19T18:17:05;13.10;99.90
4461;DHT22;2243;48.812;9.232;2022-09-19T18:19:35;13.20;99.90
4461;DHT22;2243;48.812;9.232;2022-09-19T18:22:06;13.30;99.90
4461;DHT22;2243;48.812;9.232;2022-09-19T18:24:39;13.20;99.90
4461;DHT22;2243;48.812;9.232;2022-09-19T18:27:12;13.20;99.90
4461;DHT22;2243;48.812;9.232;2022-09-19T18:29:44;13.20;99.90
4461;DHT22;2243;48.812;9.232;2022-09-19T18:32:15;13.10;99.90
4461;DHT22;2243;48.812;9.232;2022-09-19T18:34:46;13.00;99.90
4461;DHT22;2243;48.812;9.232;2022-09-19T18:37:17;13.00;99.90
4461;DHT22;2243;48.812;9.232;2022-09-19T18:39:48;13.00;99.90
4461;DHT22;2243;48.812;9.232;2022-09-19T18:42:19;13.00;99.90
4461;DHT22;2243;48.812;9.232;2022-09-19T18:44:50;13.10;99.90
4461;DHT22;2243;48.812;9.232;2022-09-19T18:47:21;13.00;99.90
4461;DHT22;2243;48.812;9.232;2022-09-19T18:49:52;13.00;99.90
4461;DHT22;2243;48.812;9.232;2022-09-19T18:52:24;13.00;99.90
4461;DHT22;2243;48.812;9.232;2022-09-19T18:54:55;13.00;99.90
4461;DHT22;2243;48.812;9.232;2022-09-19T18:57:28;13.00;99.90
4461;DHT22;2243;48.812;9.232;2022-09-19T18:59:59;13.00;99.90
4461;DHT22;2243;48.812;9.232;2022-09-19T19:02:31;13.00;99.90
4461;DHT22;2243;48.812;9.232;2022-09-19T19:05:05;12.90;99.90
4461;DHT22;2243;48.812;9.232;2022-09-19T19:07:37;13.00;99.90
4461;DHT22;2243;48.812;9.232;2022-09-19T19:10:09;12.90;99.90
4461;DHT22;2243;48.812;9.232;2022-09-19T19:12:40;12.80;99.90
4461;DHT22;2243;48.812;9.232;2022-09-19T19:15:18;12.60;99.90
4461;DHT22;2243;48.812;9.232;2022-09-19T19:17:49;12.50;99.90
4461;DHT22;2243;48.812;9.232;2022-09-19T19:20:20;12.40;99.90
4461;DHT22;2243;48.812;9.232;2022-09-19T19:22:51;12.30;99.90
4461;DHT22;2243;48.812;9.232;2022-09-19T19:25:22;12.30;99.90
4461;DHT22;2243;48.812;9.232;2022-09-19T19:27:54;12.30;99.90
4461;DHT22;2243;48.812;9.232;2022-09-19T19:30:25;12.20;99.90